Terminal Aerodrome Forecast
Issued by NWS

Home | Current Version | Previous Version | Text Only | Print | Product List | Glossary On
Versions: 1 2 3 4 5 6 7 8 9 10 11 12 13 14 15 16 17 18 19 20 21 22 23 24 25
000
FTUS42 KMFL 160627 AAA
TAFTMB
TAF AMD
KTMB 160627Z 1606/1706 00000KT 5SM HZ BKN014 BKN250
     FM160800 32005KT P6SM SCT020 BKN250
     FM161600 07012KT P6SM VCSH SCT025 BKN050=

USA.gov is the U.S. government's official web portal to all federal, state and local government web resources and services.